Time;durP1;ratioP1;P1;durP2;ratioP2;P2;SDS_P1;SDS_P2;PMS_P1;PMS_P2;Temp;Humidity;BMP_temperature;BMP_pressure;BME280_temperature;BME280_humidity;BME280_pressure;Samples;Min_cycle;Max_cycle;Signal;HPM_P1;HPM_P2
2023/10/06 00:08:17;;;;;;;7.07;4.50;;;;;;;11.22;74.54;101048.25;31210937;28;97284;-63
2023/10/06 00:23:27;;;;;;;;;;;;;;;11.05;75.01;101055.28;31211479;28;96709;-60
2023/10/06 00:38:30;;;;;;;8.47;4.50;;;;;;;10.90;76.06;101065.63;31210487;28;96745;-65
2023/10/06 00:53:33;;;;;;;6.97;4.73;;;;;;;10.82;76.45;101072.53;31230662;27;96687;-71
2023/10/06 01:08:34;;;;;;;7.83;4.80;;;;;;;10.68;76.54;101067.72;31230565;28;97275;-62
2023/10/06 01:23:34;;;;;;;9.13;5.28;;;;;;;10.79;77.66;101072.00;31228882;28;97519;-68
2023/10/06 01:38:36;;;;;;;8.52;4.88;;;;;;;11.15;77.39;101086.22;31226521;28;97061;-63
2023/10/06 01:53:40;;;;;;;9.37;4.80;;;;;;;11.28;77.52;101099.16;31224360;27;97266;-62
2023/10/06 02:08:42;;;;;;;7.90;5.17;;;;;;;11.06;77.50;101095.13;31222825;28;97082;-65
2023/10/06 02:23:44;;;;;;;11.53;5.63;;;;;;;11.12;77.55;101099.81;31222680;28;97568;-63
2023/10/06 02:38:48;;;;;;;13.67;6.90;;;;;;;11.32;77.89;101089.03;31220605;28;98035;-63
2023/10/06 02:53:50;;;;;;;14.23;7.93;;;;;;;11.59;78.12;101088.09;31220524;27;97162;-61
2023/10/06 03:08:51;;;;;;;13.20;7.87;;;;;;;11.73;77.76;101092.03;31214717;28;97471;-61
2023/10/06 03:23:57;;;;;;;12.50;7.72;;;;;;;11.84;77.92;101091.75;31213267;28;109527;-59
2023/10/06 03:39:06;;;;;;;12.03;7.00;;;;;;;11.74;77.61;101092.84;31211401;28;96694;-59
2023/10/06 03:54:10;;;;;;;16.17;8.87;;;;;;;11.68;77.76;101111.16;31212377;27;97674;-64
2023/10/06 04:09:11;;;;;;;16.63;8.90;;;;;;;11.78;78.00;101105.75;31209963;28;98488;-61
2023/10/06 04:24:12;;;;;;;9.83;7.80;;;;;;;11.73;77.56;101117.84;31208081;28;97231;-59
2023/10/06 04:39:16;;;;;;;11.70;6.35;;;;;;;11.72;78.03;101117.03;31207959;28;97156;-64
2023/10/06 04:54:16;;;;;;;15.47;7.33;;;;;;;11.79;77.56;101134.09;31203012;28;97140;-61
2023/10/06 05:09:18;;;;;;;12.27;6.72;;;;;;;11.82;77.46;101130.28;31203398;28;108326;-67
2023/10/06 05:24:19;;;;;;;12.17;6.37;;;;;;;11.76;77.95;101145.09;31202539;28;97286;-61
2023/10/06 05:39:19;;;;;;;12.75;6.60;;;;;;;11.82;77.97;101171.19;31218580;27;97174;-71
2023/10/06 05:54:21;;;;;;;11.63;5.95;;;;;;;11.92;77.40;101164.91;31220840;27;97396;-68
2023/10/06 06:09:27;;;;;;;11.80;5.90;;;;;;;12.59;77.88;101169.69;31220930;28;96678;-59
2023/10/06 06:24:27;;;;;;;10.93;6.30;;;;;;;13.47;76.36;101192.59;31219374;28;97778;-60
2023/10/06 06:39:32;;;;;;;7.78;4.70;;;;;;;14.46;76.36;101185.38;31212990;27;113777;-62
2023/10/06 06:54:36;;;;;;;9.80;4.73;;;;;;;16.23;73.68;101195.59;31212765;27;96726;-62
2023/10/06 07:09:37;;;;;;;7.03;2.70;;;;;;;17.50;70.84;101193.75;31212526;28;96816;-68
2023/10/06 07:24:37;;;;;;;6.78;2.80;;;;;;;18.16;66.18;101193.50;31212817;28;114074;-62
2023/10/06 07:39:37;;;;;;;7.47;3.38;;;;;;;17.73;65.93;101190.84;31208961;28;97989;-63
2023/10/06 07:54:40;;;;;;;10.00;4.32;;;;;;;17.95;63.10;101171.97;31207778;27;97242;-62
2023/10/06 08:09:40;;;;;;;9.23;4.77;;;;;;;19.17;62.52;101158.97;31205759;28;96711;-71
2023/10/06 08:24:41;;;;;;;6.68;4.30;;;;;;;22.55;57.96;101151.78;31203827;28;117705;-64
2023/10/06 08:39:44;;;;;;;8.93;3.80;;;;;;;27.19;46.59;101167.34;31202842;28;96805;-61
2023/10/06 08:54:45;;;;;;;5.90;3.60;;;;;;;27.94;40.13;101161.16;31206245;28;97106;-61
2023/10/06 09:09:47;;;;;;;6.70;3.13;;;;;;;28.27;35.51;101148.22;31218212;27;96688;-63
2023/10/06 09:25:05;;;;;;;10.97;3.60;;;;;;;23.65;39.34;101145.28;31224654;28;97198;-69
2023/10/06 09:40:20;;;;;;;10.70;6.73;;;;;;;20.72;44.76;101133.53;31222834;28;97442;-66
2023/10/06 09:55:21;;;;;;;5.30;2.30;;;;;;;31.04;33.44;101097.88;31219640;27;97205;-61
2023/10/06 10:10:25;;;;;;;4.65;1.90;;;;;;;37.19;23.06;101087.28;31219086;28;97519;-61
2023/10/06 10:25:29;;;;;;;5.60;1.80;;;;;;;31.34;27.10;101070.38;31216895;28;97260;-67
2023/10/06 10:40:44;;;;;;;5.57;2.40;;;;;;;34.53;24.91;101051.69;31216711;28;97365;-63
2023/10/06 10:55:45;;;;;;;4.70;1.50;;;;;;;29.00;28.85;101056.94;31217006;27;97271;-62
2023/10/06 11:10:57;;;;;;;4.67;2.40;;;;;;;24.63;34.39;101041.31;31213624;28;97310;-61
2023/10/06 11:25:58;;;;;;;8.27;3.70;;;;;;;22.88;37.86;101017.44;31211350;27;96805;-62
2023/10/06 11:40:59;;;;;;;5.90;2.10;;;;;;;34.58;25.09;100967.75;31210281;28;97800;-61
2023/10/06 11:56:07;;;;;;;5.47;2.00;;;;;;;32.98;24.59;100940.63;31208231;27;97270;-63
2023/10/06 12:11:07;;;;;;;3.83;1.63;;;;;;;37.35;20.86;100893.16;31207357;28;96801;-63
2023/10/06 12:26:08;;;;;;;5.53;2.63;;;;;;;34.68;21.98;100884.50;31206543;28;96846;-63
2023/10/06 12:41:09;;;;;;;3.45;2.08;;;;;;;27.20;30.70;100884.53;31203687;28;97622;-62
2023/10/06 12:56:09;;;;;;;4.93;2.80;;;;;;;23.38;35.37;100855.88;31205157;28;96931;-60
2023/10/06 13:11:10;;;;;;;3.67;2.35;;;;;;;25.80;34.41;100857.94;31203676;28;97273;-60
2023/10/06 13:26:11;;;;;;;5.88;2.78;;;;;;;25.69;33.50;100839.81;31203005;28;97348;-60
2023/10/06 13:41:12;;;;;;;4.83;2.40;;;;;;;22.38;38.74;100825.84;31199779;28;97520;-60
2023/10/06 13:56:12;;;;;;;8.45;2.45;;;;;;;22.51;38.28;100830.22;31213580;27;97531;-71
2023/10/06 14:11:13;;;;;;;5.70;2.90;;;;;;;20.10;42.49;100820.16;31221734;28;97417;-62
2023/10/06 14:26:14;;;;;;;5.38;2.60;;;;;;;19.03;44.64;100780.09;31216756;28;97457;-59
2023/10/06 14:56:19;;;;;;;7.90;2.60;;;;;;;17.87;48.03;100723.66;31215476;27;97234;-59
2023/10/06 15:11:23;;;;;;;6.65;2.50;;;;;;;17.43;49.91;100700.78;31214658;27;97355;-59
2023/10/06 15:26:25;;;;;;;9.07;3.93;;;;;;;17.18;50.82;100705.88;31211612;28;96788;-60
2023/10/06 15:41:30;;;;;;;9.23;3.37;;;;;;;16.97;51.78;100663.75;31210672;28;96816;-66
2023/10/06 15:56:34;;;;;;;9.03;3.53;;;;;;;16.48;52.59;100638.66;31211453;27;97499;-60
2023/10/06 16:11:44;;;;;;;7.17;3.03;;;;;;;16.15;53.78;100634.72;31208354;27;96780;-63
2023/10/06 16:26:45;;;;;;;6.30;3.83;;;;;;;15.71;55.20;100617.81;31205686;28;97195;-59
2023/10/06 16:41:45;;;;;;;8.35;3.97;;;;;;;15.38;56.54;100607.63;31203142;28;97086;-62
2023/10/06 16:56:47;;;;;;;7.13;3.28;;;;;;;15.05;57.56;100612.66;31203812;28;100908;-58
2023/10/06 17:11:47;;;;;;;6.87;3.90;;;;;;;14.68;58.92;100595.69;31203557;28;97094;-60
2023/10/06 17:26:48;;;;;;;10.82;4.50;;;;;;;14.63;59.88;100603.47;31211235;27;97411;-58
2023/10/06 17:41:49;;;;;;;10.23;4.65;;;;;;;14.68;59.95;100582.28;31223169;28;96800;-58
2023/10/06 17:56:50;;;;;;;7.60;4.70;;;;;;;14.63;60.42;100582.84;31223317;27;96850;-58
2023/10/06 18:11:51;;;;;;;8.40;4.07;;;;;;;14.47;61.54;100551.69;31220612;28;96850;-59
2023/10/06 18:26:51;;;;;;;7.80;3.60;;;;;;;14.47;62.03;100543.63;31220371;28;96737;-60
2023/10/06 18:41:52;;;;;;;6.65;3.35;;;;;;;14.54;62.42;100541.03;31218523;28;111375;-59
2023/10/06 18:56:52;;;;;;;8.85;3.15;;;;;;;14.72;62.33;100519.22;31216706;27;96929;-66
2023/10/06 19:11:53;;;;;;;6.25;2.83;;;;;;;14.82;62.13;100497.47;31217175;28;97236;-60
2023/10/06 19:26:53;;;;;;;7.68;3.17;;;;;;;14.87;61.52;100489.66;31213023;28;97333;-60
2023/10/06 19:41:56;;;;;;;4.70;2.40;;;;;;;14.94;61.74;100481.69;31212471;28;100878;-59
2023/10/06 19:56:56;;;;;;;;;;;;;;;15.12;61.10;100478.53;31210933;27;96840;-60
2023/10/06 20:11:58;;;;;;;8.02;2.97;;;;;;;15.21;60.36;100467.50;31212056;28;96773;-68
2023/10/06 20:26:58;;;;;;;4.47;2.43;;;;;;;15.29;59.19;100457.63;31210805;28;97069;-72
2023/10/06 20:41:59;;;;;;;6.10;2.38;;;;;;;15.06;58.84;100450.63;31206965;28;97267;-60
2023/10/06 20:56:59;;;;;;;6.97;3.03;;;;;;;14.97;58.62;100438.41;31206004;27;96825;-60
2023/10/06 21:12:00;;;;;;;5.13;2.80;;;;;;;14.79;58.45;100422.75;31227684;28;96816;-59
2023/10/06 21:27:00;;;;;;;6.15;2.75;;;;;;;14.62;58.33;100414.94;31227700;28;99035;-60
2023/10/06 21:42:00;;;;;;;6.63;2.78;;;;;;;14.60;57.75;100414.31;31227643;28;97220;-60
2023/10/06 21:57:01;;;;;;;5.88;2.78;;;;;;;14.54;57.78;100407.84;31225896;27;109113;-59
2023/10/06 22:12:01;;;;;;;7.57;2.70;;;;;;;14.35;57.53;100400.41;31223777;27;97894;-59
2023/10/06 22:27:06;;;;;;;5.50;2.55;;;;;;;14.22;57.99;100393.91;31222631;28;98037;-59
2023/10/06 22:42:06;;;;;;;5.30;2.70;;;;;;;14.32;58.07;100377.50;31220468;28;96808;-60
2023/10/06 22:57:07;;;;;;;5.65;2.50;;;;;;;14.32;57.87;100355.25;31220282;27;100068;-60
2023/10/06 23:12:07;;;;;;;8.50;2.42;;;;;;;14.21;57.83;100360.09;31218873;28;97096;-61
2023/10/06 23:27:08;;;;;;;10.05;2.55;;;;;;;14.05;58.09;100334.38;31199705;27;97166;-62
2023/10/06 23:42:14;;;;;;;5.18;2.63;;;;;;;13.96;58.25;100326.66;31216417;28;111234;-59
2023/10/06 23:57:15;;;;;;;6.67;2.17;;;;;;;13.79;58.47;100292.06;31213990;27;97050;-58
